Round Spring, Missouri
Current Conditions -  °F | °C
As of 6:53 AM on Sunday 21 Dec 2014 (Local Time) from KUNO Reporting Station
Overcast Overcast  
Wind Chill:   Ceiling: 2700
Heat Index:   Visibility: 8mi
Dew Point:   Wind: 8mph
Humidity: 86%   Direction: 170°S
Pressure: 30.17"   Gusts: NA
Location:  37.1833°N, 91.4819°W
Report Text: KUNO 211253Z AUTO 17007KT 8SM FEW009 OVC027 03/01 A3017 RMK AO2 SLP223 T00330011 $
Loading
Personal Weather Stations






























Interactive Weather Map New forecast layout! Learn more

10-Day Weather Forecast

Advertisements
Track Severe Weather on mobile